sensor_id;sensor_type;location;lat;lon;timestamp;temperature;humidity
41668;DHT22;27356;50.920;5.350;2023-02-11T00:01:07;7.00;99.90
41668;DHT22;27356;50.920;5.350;2023-02-11T00:03:33;7.00;99.90
41668;DHT22;27356;50.920;5.350;2023-02-11T00:06:01;6.90;99.90
41668;DHT22;27356;50.920;5.350;2023-02-11T00:08:27;6.70;99.90
41668;DHT22;27356;50.920;5.350;2023-02-11T00:10:55;6.70;99.90
41668;DHT22;27356;50.920;5.350;2023-02-11T00:13:21;6.60;99.90
41668;DHT22;27356;50.920;5.350;2023-02-11T00:15:47;6.50;99.90
41668;DHT22;27356;50.920;5.350;2023-02-11T00:18:13;6.50;99.90
41668;DHT22;27356;50.920;5.350;2023-02-11T00:20:39;6.50;99.90
41668;DHT22;27356;50.920;5.350;2023-02-11T00:23:04;6.50;99.90
41668;DHT22;27356;50.920;5.350;2023-02-11T00:25:30;6.50;99.90
41668;DHT22;27356;50.920;5.350;2023-02-11T00:27:56;6.60;99.90
41668;DHT22;27356;50.920;5.350;2023-02-11T00:30:22;6.60;99.90
41668;DHT22;27356;50.920;5.350;2023-02-11T00:32:48;6.50;99.90
41668;DHT22;27356;50.920;5.350;2023-02-11T00:35:14;6.40;99.90
41668;DHT22;27356;50.920;5.350;2023-02-11T00:37:39;6.40;99.90
41668;DHT22;27356;50.920;5.350;2023-02-11T00:40:06;6.30;99.90
41668;DHT22;27356;50.920;5.350;2023-02-11T00:42:31;6.40;99.90
41668;DHT22;27356;50.920;5.350;2023-02-11T00:45:00;6.40;99.90
41668;DHT22;27356;50.920;5.350;2023-02-11T00:47:26;6.40;99.90
41668;DHT22;27356;50.920;5.350;2023-02-11T00:49:51;6.40;99.90
41668;DHT22;27356;50.920;5.350;2023-02-11T00:52:17;6.30;99.90
41668;DHT22;27356;50.920;5.350;2023-02-11T00:54:43;6.40;99.90
41668;DHT22;27356;50.920;5.350;2023-02-11T00:57:09;6.40;99.90
41668;DHT22;27356;50.920;5.350;2023-02-11T00:59:35;6.50;99.90
41668;DHT22;27356;50.920;5.350;2023-02-11T01:02:00;6.50;99.90
41668;DHT22;27356;50.920;5.350;2023-02-11T01:04:26;6.60;99.90
41668;DHT22;27356;50.920;5.350;2023-02-11T01:06:52;6.70;99.90
41668;DHT22;27356;50.920;5.350;2023-02-11T01:09:17;6.80;99.90
41668;DHT22;27356;50.920;5.350;2023-02-11T01:11:45;6.90;99.90
41668;DHT22;27356;50.920;5.350;2023-02-11T01:14:11;6.80;99.90
41668;DHT22;27356;50.920;5.350;2023-02-11T01:16:37;6.90;99.90
41668;DHT22;27356;50.920;5.350;2023-02-11T01:19:03;6.90;99.90
41668;DHT22;27356;50.920;5.350;2023-02-11T01:21:28;6.90;99.90
41668;DHT22;27356;50.920;5.350;2023-02-11T01:23:54;6.90;99.90
41668;DHT22;27356;50.920;5.350;2023-02-11T01:26:20;6.90;99.90
41668;DHT22;27356;50.920;5.350;2023-02-11T01:28:46;7.00;99.90
41668;DHT22;27356;50.920;5.350;2023-02-11T01:31:12;6.90;99.90
41668;DHT22;27356;50.920;5.350;2023-02-11T01:33:38;6.90;99.90
41668;DHT22;27356;50.920;5.350;2023-02-11T01:36:05;6.80;99.90
41668;DHT22;27356;50.920;5.350;2023-02-11T01:38:31;6.90;99.90
41668;DHT22;27356;50.920;5.350;2023-02-11T01:41:00;6.80;99.90
41668;DHT22;27356;50.920;5.350;2023-02-11T01:43:28;6.70;99.90
41668;DHT22;27356;50.920;5.350;2023-02-11T01:48:56;6.70;99.90
41668;DHT22;27356;50.920;5.350;2023-02-11T01:51:31;6.80;99.90
41668;DHT22;27356;50.920;5.350;2023-02-11T01:53:59;6.70;99.90
41668;DHT22;27356;50.920;5.350;2023-02-11T01:56:48;6.60;99.90
41668;DHT22;27356;50.920;5.350;2023-02-11T01:59:39;6.60;99.90
41668;DHT22;27356;50.920;5.350;2023-02-11T02:02:09;6.80;99.90
41668;DHT22;27356;50.920;5.350;2023-02-11T02:04:43;6.80;99.90
41668;DHT22;27356;50.920;5.350;2023-02-11T02:07:18;6.80;99.90
41668;DHT22;27356;50.920;5.350;2023-02-11T02:09:52;6.80;99.90
41668;DHT22;27356;50.920;5.350;2023-02-11T02:12:20;6.80;99.90
41668;DHT22;27356;50.920;5.350;2023-02-11T02:14:46;6.80;99.90
41668;DHT22;27356;50.920;5.350;2023-02-11T02:17:35;6.70;99.90
41668;DHT22;27356;50.920;5.350;2023-02-11T02:26:27;7.20;99.90
41668;DHT22;27356;50.920;5.350;2023-02-11T02:34:55;7.10;99.90
41668;DHT22;27356;50.920;5.350;2023-02-11T02:37:33;6.90;99.90
41668;DHT22;27356;50.920;5.350;2023-02-11T02:40:06;6.90;99.90
41668;DHT22;27356;50.920;5.350;2023-02-11T02:42:34;7.00;99.90
41668;DHT22;27356;50.920;5.350;2023-02-11T02:45:00;6.90;99.90
41668;DHT22;27356;50.920;5.350;2023-02-11T02:47:26;7.10;99.90
41668;DHT22;27356;50.920;5.350;2023-02-11T02:49:51;6.90;99.90
41668;DHT22;27356;50.920;5.350;2023-02-11T02:52:35;7.00;99.90
41668;DHT22;27356;50.920;5.350;2023-02-11T03:06:31;7.00;99.90
41668;DHT22;27356;50.920;5.350;2023-02-11T03:10:20;6.90;99.90
41668;DHT22;27356;50.920;5.350;2023-02-11T03:12:21;7.00;99.90
41668;DHT22;27356;50.920;5.350;2023-02-11T03:14:50;7.20;99.90
41668;DHT22;27356;50.920;5.350;2023-02-11T03:17:17;7.10;99.90
41668;DHT22;27356;50.920;5.350;2023-02-11T03:19:45;7.20;99.90
41668;DHT22;27356;50.920;5.350;2023-02-11T03:22:24;7.00;99.90
41668;DHT22;27356;50.920;5.350;2023-02-11T03:24:51;6.90;99.90
41668;DHT22;27356;50.920;5.350;2023-02-11T03:32:50;7.00;99.90
41668;DHT22;27356;50.920;5.350;2023-02-11T03:37:49;7.10;99.90
41668;DHT22;27356;50.920;5.350;2023-02-11T03:40:19;7.20;99.90
41668;DHT22;27356;50.920;5.350;2023-02-11T03:43:20;7.20;99.90
41668;DHT22;27356;50.920;5.350;2023-02-11T03:45:48;7.20;99.90
41668;DHT22;27356;50.920;5.350;2023-02-11T03:48:18;7.30;99.90
41668;DHT22;27356;50.920;5.350;2023-02-11T03:50:47;7.30;99.90
41668;DHT22;27356;50.920;5.350;2023-02-11T03:53:14;7.30;99.90
41668;DHT22;27356;50.920;5.350;2023-02-11T03:55:40;7.30;99.90
41668;DHT22;27356;50.920;5.350;2023-02-11T03:58:07;7.20;99.90
41668;DHT22;27356;50.920;5.350;2023-02-11T04:00:36;7.10;99.90
41668;DHT22;27356;50.920;5.350;2023-02-11T04:03:04;7.10;99.90
41668;DHT22;27356;50.920;5.350;2023-02-11T04:05:30;7.20;99.90
41668;DHT22;27356;50.920;5.350;2023-02-11T04:07:56;7.10;99.90
41668;DHT22;27356;50.920;5.350;2023-02-11T04:10:22;7.10;99.90
41668;DHT22;27356;50.920;5.350;2023-02-11T04:12:47;7.10;99.90
41668;DHT22;27356;50.920;5.350;2023-02-11T04:15:13;7.10;99.90
41668;DHT22;27356;50.920;5.350;2023-02-11T04:17:39;7.10;99.90
41668;DHT22;27356;50.920;5.350;2023-02-11T04:20:05;7.00;99.90
41668;DHT22;27356;50.920;5.350;2023-02-11T04:22:30;7.00;99.90
41668;DHT22;27356;50.920;5.350;2023-02-11T04:24:56;7.00;99.90
41668;DHT22;27356;50.920;5.350;2023-02-11T04:27:22;7.10;99.90
41668;DHT22;27356;50.920;5.350;2023-02-11T04:29:48;7.10;99.90
41668;DHT22;27356;50.920;5.350;2023-02-11T04:32:14;7.00;99.90
41668;DHT22;27356;50.920;5.350;2023-02-11T04:34:40;7.10;99.90
41668;DHT22;27356;50.920;5.350;2023-02-11T04:37:05;7.30;99.90
41668;DHT22;27356;50.920;5.350;2023-02-11T04:39:31;7.30;99.90
41668;DHT22;27356;50.920;5.350;2023-02-11T04:41:57;7.30;99.90
41668;DHT22;27356;50.920;5.350;2023-02-11T04:44:22;7.30;99.90
41668;DHT22;27356;50.920;5.350;2023-02-11T04:46:48;7.30;99.90
41668;DHT22;27356;50.920;5.350;2023-02-11T04:49:15;7.30;99.90
41668;DHT22;27356;50.920;5.350;2023-02-11T04:51:41;7.30;99.90
41668;DHT22;27356;50.920;5.350;2023-02-11T04:54:07;7.10;99.90
41668;DHT22;27356;50.920;5.350;2023-02-11T04:56:33;7.00;99.90
41668;DHT22;27356;50.920;5.350;2023-02-11T04:58:59;7.10;99.90
41668;DHT22;27356;50.920;5.350;2023-02-11T05:01:25;7.30;99.90
41668;DHT22;27356;50.920;5.350;2023-02-11T05:03:53;7.20;99.90
41668;DHT22;27356;50.920;5.350;2023-02-11T05:06:18;7.30;99.90
41668;DHT22;27356;50.920;5.350;2023-02-11T05:08:44;7.30;99.90
41668;DHT22;27356;50.920;5.350;2023-02-11T05:11:18;7.40;99.90
41668;DHT22;27356;50.920;5.350;2023-02-11T05:13:45;7.50;99.90
41668;DHT22;27356;50.920;5.350;2023-02-11T05:16:11;7.40;99.90
41668;DHT22;27356;50.920;5.350;2023-02-11T05:18:38;7.40;99.90
41668;DHT22;27356;50.920;5.350;2023-02-11T05:21:08;7.50;99.90
41668;DHT22;27356;50.920;5.350;2023-02-11T05:23:34;7.50;99.90
41668;DHT22;27356;50.920;5.350;2023-02-11T05:26:01;7.40;99.90
41668;DHT22;27356;50.920;5.350;2023-02-11T05:28:27;7.40;99.90
41668;DHT22;27356;50.920;5.350;2023-02-11T05:30:53;7.40;99.90
41668;DHT22;27356;50.920;5.350;2023-02-11T05:33:18;7.20;99.90
41668;DHT22;27356;50.920;5.350;2023-02-11T05:35:44;7.20;99.90
41668;DHT22;27356;50.920;5.350;2023-02-11T05:38:10;7.20;99.90
41668;DHT22;27356;50.920;5.350;2023-02-11T05:40:36;7.30;99.90
41668;DHT22;27356;50.920;5.350;2023-02-11T05:43:01;7.30;99.90
41668;DHT22;27356;50.920;5.350;2023-02-11T05:45:27;7.30;99.90
41668;DHT22;27356;50.920;5.350;2023-02-11T05:47:53;7.40;99.90
41668;DHT22;27356;50.920;5.350;2023-02-11T05:50:19;7.30;99.90
41668;DHT22;27356;50.920;5.350;2023-02-11T05:52:44;7.30;99.90
41668;DHT22;27356;50.920;5.350;2023-02-11T05:55:10;7.20;99.90
41668;DHT22;27356;50.920;5.350;2023-02-11T05:57:36;7.30;99.90
41668;DHT22;27356;50.920;5.350;2023-02-11T06:00:03;7.40;99.90
41668;DHT22;27356;50.920;5.350;2023-02-11T06:02:29;7.40;99.90
41668;DHT22;27356;50.920;5.350;2023-02-11T06:04:55;7.40;99.90
41668;DHT22;27356;50.920;5.350;2023-02-11T06:07:20;7.10;99.90
41668;DHT22;27356;50.920;5.350;2023-02-11T06:09:46;7.20;99.90
41668;DHT22;27356;50.920;5.350;2023-02-11T06:12:12;7.30;99.90
41668;DHT22;27356;50.920;5.350;2023-02-11T06:14:40;7.30;99.90
41668;DHT22;27356;50.920;5.350;2023-02-11T06:17:06;7.30;99.90
41668;DHT22;27356;50.920;5.350;2023-02-11T06:19:32;7.30;99.90
41668;DHT22;27356;50.920;5.350;2023-02-11T06:21:57;7.20;99.90
41668;DHT22;27356;50.920;5.350;2023-02-11T06:24:23;7.30;99.90
41668;DHT22;27356;50.920;5.350;2023-02-11T06:26:49;7.40;99.90
41668;DHT22;27356;50.920;5.350;2023-02-11T06:29:15;7.40;99.90
41668;DHT22;27356;50.920;5.350;2023-02-11T06:31:40;7.40;99.90
41668;DHT22;27356;50.920;5.350;2023-02-11T06:34:07;7.30;99.90
41668;DHT22;27356;50.920;5.350;2023-02-11T06:36:33;7.30;99.90
41668;DHT22;27356;50.920;5.350;2023-02-11T06:38:59;7.20;99.90
41668;DHT22;27356;50.920;5.350;2023-02-11T06:41:25;7.30;99.90
41668;DHT22;27356;50.920;5.350;2023-02-11T06:43:51;7.20;99.90
41668;DHT22;27356;50.920;5.350;2023-02-11T06:46:18;7.20;99.90
41668;DHT22;27356;50.920;5.350;2023-02-11T06:48:45;7.30;99.90
41668;DHT22;27356;50.920;5.350;2023-02-11T06:51:11;7.40;99.90
41668;DHT22;27356;50.920;5.350;2023-02-11T06:53:40;7.50;99.90
41668;DHT22;27356;50.920;5.350;2023-02-11T06:56:09;7.50;99.90
41668;DHT22;27356;50.920;5.350;2023-02-11T06:58:35;7.50;99.90
41668;DHT22;27356;50.920;5.350;2023-02-11T07:01:06;7.50;99.90
41668;DHT22;27356;50.920;5.350;2023-02-11T07:03:34;7.50;99.90
41668;DHT22;27356;50.920;5.350;2023-02-11T07:06:04;7.40;99.90
41668;DHT22;27356;50.920;5.350;2023-02-11T07:08:34;7.50;99.90
41668;DHT22;27356;50.920;5.350;2023-02-11T07:11:00;7.50;99.90
41668;DHT22;27356;50.920;5.350;2023-02-11T07:13:26;7.50;99.90
41668;DHT22;27356;50.920;5.350;2023-02-11T07:15:52;7.50;99.90
41668;DHT22;27356;50.920;5.350;2023-02-11T07:18:17;7.50;99.90
41668;DHT22;27356;50.920;5.350;2023-02-11T07:20:44;7.60;99.90
41668;DHT22;27356;50.920;5.350;2023-02-11T07:23:09;7.60;99.90
41668;DHT22;27356;50.920;5.350;2023-02-11T07:25:35;7.60;99.90
41668;DHT22;27356;50.920;5.350;2023-02-11T07:28:02;7.70;99.90
41668;DHT22;27356;50.920;5.350;2023-02-11T07:30:28;7.70;99.90
41668;DHT22;27356;50.920;5.350;2023-02-11T07:32:55;7.50;99.90
41668;DHT22;27356;50.920;5.350;2023-02-11T07:35:21;7.60;99.90
41668;DHT22;27356;50.920;5.350;2023-02-11T07:37:46;7.60;99.90
41668;DHT22;27356;50.920;5.350;2023-02-11T07:40:12;7.80;99.90
41668;DHT22;27356;50.920;5.350;2023-02-11T07:42:38;7.90;99.90
41668;DHT22;27356;50.920;5.350;2023-02-11T07:45:05;7.90;99.90
41668;DHT22;27356;50.920;5.350;2023-02-11T07:47:33;7.80;99.90
41668;DHT22;27356;50.920;5.350;2023-02-11T07:49:59;7.80;99.90
41668;DHT22;27356;50.920;5.350;2023-02-11T07:52:24;7.80;99.90
41668;DHT22;27356;50.920;5.350;2023-02-11T07:54:53;7.80;99.90
41668;DHT22;27356;50.920;5.350;2023-02-11T07:57:19;7.80;99.90
41668;DHT22;27356;50.920;5.350;2023-02-11T07:59:44;7.70;99.90
41668;DHT22;27356;50.920;5.350;2023-02-11T08:02:10;7.70;99.90
41668;DHT22;27356;50.920;5.350;2023-02-11T08:04:36;7.80;99.90
41668;DHT22;27356;50.920;5.350;2023-02-11T08:07:01;7.90;99.90
41668;DHT22;27356;50.920;5.350;2023-02-11T08:09:27;7.90;99.90
41668;DHT22;27356;50.920;5.350;2023-02-11T08:11:53;7.80;99.90
41668;DHT22;27356;50.920;5.350;2023-02-11T08:14:18;7.70;99.90
41668;DHT22;27356;50.920;5.350;2023-02-11T08:16:45;7.90;99.90
41668;DHT22;27356;50.920;5.350;2023-02-11T08:19:15;7.80;99.90
41668;DHT22;27356;50.920;5.350;2023-02-11T08:21:41;7.90;99.90
41668;DHT22;27356;50.920;5.350;2023-02-11T08:24:07;8.00;99.90
41668;DHT22;27356;50.920;5.350;2023-02-11T08:26:34;8.10;99.90
41668;DHT22;27356;50.920;5.350;2023-02-11T08:29:05;8.10;99.90
41668;DHT22;27356;50.920;5.350;2023-02-11T08:31:37;8.10;99.90
41668;DHT22;27356;50.920;5.350;2023-02-11T08:34:03;8.10;99.90
41668;DHT22;27356;50.920;5.350;2023-02-11T08:36:35;7.90;99.90
41668;DHT22;27356;50.920;5.350;2023-02-11T08:39:04;7.90;99.90
41668;DHT22;27356;50.920;5.350;2023-02-11T08:41:34;7.90;99.90
41668;DHT22;27356;50.920;5.350;2023-02-11T08:44:00;8.00;99.90
41668;DHT22;27356;50.920;5.350;2023-02-11T08:46:26;8.00;99.90
41668;DHT22;27356;50.920;5.350;2023-02-11T08:48:52;8.00;99.90
41668;DHT22;27356;50.920;5.350;2023-02-11T08:51:20;8.10;99.90
41668;DHT22;27356;50.920;5.350;2023-02-11T08:53:46;8.10;99.90
41668;DHT22;27356;50.920;5.350;2023-02-11T08:56:13;8.20;99.90
41668;DHT22;27356;50.920;5.350;2023-02-11T08:58:39;8.30;99.90
41668;DHT22;27356;50.920;5.350;2023-02-11T09:01:31;8.30;99.90
41668;DHT22;27356;50.920;5.350;2023-02-11T09:03:57;8.30;99.90
41668;DHT22;27356;50.920;5.350;2023-02-11T09:06:24;8.40;99.90
41668;DHT22;27356;50.920;5.350;2023-02-11T09:08:53;8.40;99.90
41668;DHT22;27356;50.920;5.350;2023-02-11T09:11:24;8.40;99.90
41668;DHT22;27356;50.920;5.350;2023-02-11T09:13:50;8.40;99.90
41668;DHT22;27356;50.920;5.350;2023-02-11T09:16:23;8.60;99.90
41668;DHT22;27356;50.920;5.350;2023-02-11T09:18:49;8.50;99.90
41668;DHT22;27356;50.920;5.350;2023-02-11T09:21:16;8.70;99.90
41668;DHT22;27356;50.920;5.350;2023-02-11T09:23:42;8.80;99.90
41668;DHT22;27356;50.920;5.350;2023-02-11T09:28:40;8.70;99.90
41668;DHT22;27356;50.920;5.350;2023-02-11T09:31:08;8.60;99.90
41668;DHT22;27356;50.920;5.350;2023-02-11T09:33:35;8.50;99.90
41668;DHT22;27356;50.920;5.350;2023-02-11T09:36:02;8.50;99.90
41668;DHT22;27356;50.920;5.350;2023-02-11T09:38:29;8.50;99.90
41668;DHT22;27356;50.920;5.350;2023-02-11T09:40:55;8.60;99.90
41668;DHT22;27356;50.920;5.350;2023-02-11T09:43:26;8.60;99.90
41668;DHT22;27356;50.920;5.350;2023-02-11T09:45:58;8.60;99.90
41668;DHT22;27356;50.920;5.350;2023-02-11T09:48:24;8.70;99.90
41668;DHT22;27356;50.920;5.350;2023-02-11T09:50:54;8.70;99.90
41668;DHT22;27356;50.920;5.350;2023-02-11T09:53:37;8.80;99.90
41668;DHT22;27356;50.920;5.350;2023-02-11T09:56:11;8.70;99.90
41668;DHT22;27356;50.920;5.350;2023-02-11T09:58:43;8.70;99.90
41668;DHT22;27356;50.920;5.350;2023-02-11T10:07:49;8.70;99.90
41668;DHT22;27356;50.920;5.350;2023-02-11T10:12:30;8.70;99.90
41668;DHT22;27356;50.920;5.350;2023-02-11T10:18:12;8.80;99.90
41668;DHT22;27356;50.920;5.350;2023-02-11T10:21:05;8.80;99.90
41668;DHT22;27356;50.920;5.350;2023-02-11T10:23:38;8.90;99.90
41668;DHT22;27356;50.920;5.350;2023-02-11T10:26:15;8.80;99.90
41668;DHT22;27356;50.920;5.350;2023-02-11T10:28:44;8.80;99.90
41668;DHT22;27356;50.920;5.350;2023-02-11T10:31:19;8.80;99.90
41668;DHT22;27356;50.920;5.350;2023-02-11T10:33:53;8.90;99.90
41668;DHT22;27356;50.920;5.350;2023-02-11T10:36:25;9.00;99.90
41668;DHT22;27356;50.920;5.350;2023-02-11T10:38:52;9.10;99.90
41668;DHT22;27356;50.920;5.350;2023-02-11T10:41:31;9.00;99.90
41668;DHT22;27356;50.920;5.350;2023-02-11T10:44:01;9.00;99.90
41668;DHT22;27356;50.920;5.350;2023-02-11T10:46:32;8.90;99.90
41668;DHT22;27356;50.920;5.350;2023-02-11T10:48:59;8.90;99.90
41668;DHT22;27356;50.920;5.350;2023-02-11T10:51:27;9.10;99.90
41668;DHT22;27356;50.920;5.350;2023-02-11T10:56:37;9.20;99.90
41668;DHT22;27356;50.920;5.350;2023-02-11T11:02:03;9.20;99.90
41668;DHT22;27356;50.920;5.350;2023-02-11T11:04:38;9.20;99.90
41668;DHT22;27356;50.920;5.350;2023-02-11T11:07:24;9.30;99.90
41668;DHT22;27356;50.920;5.350;2023-02-11T11:10:07;9.30;99.90
41668;DHT22;27356;50.920;5.350;2023-02-11T11:17:41;9.50;99.90
41668;DHT22;27356;50.920;5.350;2023-02-11T11:23:53;9.30;99.90
41668;DHT22;27356;50.920;5.350;2023-02-11T11:26:19;9.20;99.90
41668;DHT22;27356;50.920;5.350;2023-02-11T11:31:14;9.10;99.90
41668;DHT22;27356;50.920;5.350;2023-02-11T11:33:43;9.30;99.90
41668;DHT22;27356;50.920;5.350;2023-02-11T11:36:12;9.50;99.90
41668;DHT22;27356;50.920;5.350;2023-02-11T11:38:54;9.60;99.90
41668;DHT22;27356;50.920;5.350;2023-02-11T11:41:28;9.50;99.90
41668;DHT22;27356;50.920;5.350;2023-02-11T11:44:26;9.50;99.90
41668;DHT22;27356;50.920;5.350;2023-02-11T11:54:33;9.30;99.90
41668;DHT22;27356;50.920;5.350;2023-02-11T11:57:04;9.40;99.90
41668;DHT22;27356;50.920;5.350;2023-02-11T11:59:35;9.40;99.90
41668;DHT22;27356;50.920;5.350;2023-02-11T12:03:24;9.50;99.90
41668;DHT22;27356;50.920;5.350;2023-02-11T12:08:37;9.80;99.90
41668;DHT22;27356;50.920;5.350;2023-02-11T12:11:14;9.70;99.90
41668;DHT22;27356;50.920;5.350;2023-02-11T12:14:05;9.60;99.90
41668;DHT22;27356;50.920;5.350;2023-02-11T12:16:56;9.70;99.90
41668;DHT22;27356;50.920;5.350;2023-02-11T12:22:11;9.80;99.90
41668;DHT22;27356;50.920;5.350;2023-02-11T12:38:21;10.00;99.90
41668;DHT22;27356;50.920;5.350;2023-02-11T12:43:21;10.20;99.90
41668;DHT22;27356;50.920;5.350;2023-02-11T12:54:16;10.20;99.90
41668;DHT22;27356;50.920;5.350;2023-02-11T12:57:23;10.10;99.90
41668;DHT22;27356;50.920;5.350;2023-02-11T13:00:34;10.20;99.90
41668;DHT22;27356;50.920;5.350;2023-02-11T13:08:15;10.30;99.90
41668;DHT22;27356;50.920;5.350;2023-02-11T13:10:49;10.30;99.90
41668;DHT22;27356;50.920;5.350;2023-02-11T13:13:25;10.20;99.90
41668;DHT22;27356;50.920;5.350;2023-02-11T13:16:03;10.20;99.90
41668;DHT22;27356;50.920;5.350;2023-02-11T13:18:44;10.30;99.90
41668;DHT22;27356;50.920;5.350;2023-02-11T13:29:09;10.50;99.90
41668;DHT22;27356;50.920;5.350;2023-02-11T13:31:37;10.50;99.90
41668;DHT22;27356;50.920;5.350;2023-02-11T13:34:03;10.50;99.90
41668;DHT22;27356;50.920;5.350;2023-02-11T13:36:54;10.50;99.90
41668;DHT22;27356;50.920;5.350;2023-02-11T13:39:20;10.40;99.90
41668;DHT22;27356;50.920;5.350;2023-02-11T13:41:47;10.20;99.90
41668;DHT22;27356;50.920;5.350;2023-02-11T13:44:22;10.30;99.90
41668;DHT22;27356;50.920;5.350;2023-02-11T13:47:04;10.30;99.90
41668;DHT22;27356;50.920;5.350;2023-02-11T13:52:03;10.20;99.90
41668;DHT22;27356;50.920;5.350;2023-02-11T13:54:36;10.30;99.90
41668;DHT22;27356;50.920;5.350;2023-02-11T14:03:28;10.60;99.90
41668;DHT22;27356;50.920;5.350;2023-02-11T14:06:14;10.60;99.90
41668;DHT22;27356;50.920;5.350;2023-02-11T14:09:32;10.50;99.90
41668;DHT22;27356;50.920;5.350;2023-02-11T14:17:28;10.30;99.90
41668;DHT22;27356;50.920;5.350;2023-02-11T14:19:55;10.50;99.90
41668;DHT22;27356;50.920;5.350;2023-02-11T14:22:25;10.50;99.90
41668;DHT22;27356;50.920;5.350;2023-02-11T14:24:55;10.40;99.90
41668;DHT22;27356;50.920;5.350;2023-02-11T14:27:33;10.50;99.90
41668;DHT22;27356;50.920;5.350;2023-02-11T14:33:02;10.60;99.90
41668;DHT22;27356;50.920;5.350;2023-02-11T14:35:55;10.70;99.90
41668;DHT22;27356;50.920;5.350;2023-02-11T14:41:24;10.50;99.90
41668;DHT22;27356;50.920;5.350;2023-02-11T14:43:53;10.40;99.90
41668;DHT22;27356;50.920;5.350;2023-02-11T14:46:22;10.50;99.90
41668;DHT22;27356;50.920;5.350;2023-02-11T14:48:52;10.30;99.90
41668;DHT22;27356;50.920;5.350;2023-02-11T14:51:40;10.30;99.90
41668;DHT22;27356;50.920;5.350;2023-02-11T14:54:14;10.40;99.90
41668;DHT22;27356;50.920;5.350;2023-02-11T14:56:42;10.40;99.90
41668;DHT22;27356;50.920;5.350;2023-02-11T14:59:17;10.40;99.90
41668;DHT22;27356;50.920;5.350;2023-02-11T15:01:49;10.60;99.90
41668;DHT22;27356;50.920;5.350;2023-02-11T15:04:24;10.50;99.90
41668;DHT22;27356;50.920;5.350;2023-02-11T15:06:50;10.30;99.90
41668;DHT22;27356;50.920;5.350;2023-02-11T15:12:02;10.50;99.90
41668;DHT22;27356;50.920;5.350;2023-02-11T15:14:31;10.50;99.90
41668;DHT22;27356;50.920;5.350;2023-02-11T15:17:00;10.40;99.90
41668;DHT22;27356;50.920;5.350;2023-02-11T15:19:31;10.50;99.90
41668;DHT22;27356;50.920;5.350;2023-02-11T15:21:59;10.50;99.90
41668;DHT22;27356;50.920;5.350;2023-02-11T15:24:27;10.60;99.90
41668;DHT22;27356;50.920;5.350;2023-02-11T15:27:10;10.60;99.90
41668;DHT22;27356;50.920;5.350;2023-02-11T15:29:43;10.60;99.90
41668;DHT22;27356;50.920;5.350;2023-02-11T15:32:19;10.60;99.90
41668;DHT22;27356;50.920;5.350;2023-02-11T15:34:47;10.60;99.90
41668;DHT22;27356;50.920;5.350;2023-02-11T15:37:26;10.60;99.90
41668;DHT22;27356;50.920;5.350;2023-02-11T15:39:54;10.60;99.90
41668;DHT22;27356;50.920;5.350;2023-02-11T15:42:59;10.60;99.90
41668;DHT22;27356;50.920;5.350;2023-02-11T15:45:39;10.60;99.90
41668;DHT22;27356;50.920;5.350;2023-02-11T15:48:13;10.50;99.90
41668;DHT22;27356;50.920;5.350;2023-02-11T15:50:41;10.50;99.90
41668;DHT22;27356;50.920;5.350;2023-02-11T15:53:24;10.50;99.90
41668;DHT22;27356;50.920;5.350;2023-02-11T15:56:19;10.60;99.90
41668;DHT22;27356;50.920;5.350;2023-02-11T15:58:44;10.50;99.90
41668;DHT22;27356;50.920;5.350;2023-02-11T16:01:12;10.50;99.90
41668;DHT22;27356;50.920;5.350;2023-02-11T16:03:40;10.50;99.90
41668;DHT22;27356;50.920;5.350;2023-02-11T16:06:25;10.50;99.90
41668;DHT22;27356;50.920;5.350;2023-02-11T16:08:56;10.50;99.90
41668;DHT22;27356;50.920;5.350;2023-02-11T16:11:35;10.30;99.90
41668;DHT22;27356;50.920;5.350;2023-02-11T16:14:01;10.40;99.90
41668;DHT22;27356;50.920;5.350;2023-02-11T16:16:46;10.30;99.90
41668;DHT22;27356;50.920;5.350;2023-02-11T16:19:17;10.40;99.90
41668;DHT22;27356;50.920;5.350;2023-02-11T16:21:44;10.40;99.90
41668;DHT22;27356;50.920;5.350;2023-02-11T16:24:20;10.30;99.90
41668;DHT22;27356;50.920;5.350;2023-02-11T16:26:48;10.20;99.90
41668;DHT22;27356;50.920;5.350;2023-02-11T16:29:17;10.20;99.90
41668;DHT22;27356;50.920;5.350;2023-02-11T16:31:48;10.10;99.90
41668;DHT22;27356;50.920;5.350;2023-02-11T16:36:40;10.10;99.90
41668;DHT22;27356;50.920;5.350;2023-02-11T16:39:06;10.00;99.90
41668;DHT22;27356;50.920;5.350;2023-02-11T16:41:32;10.10;99.90
41668;DHT22;27356;50.920;5.350;2023-02-11T16:43:57;10.10;99.90
41668;DHT22;27356;50.920;5.350;2023-02-11T16:46:23;10.10;99.90
41668;DHT22;27356;50.920;5.350;2023-02-11T16:48:49;10.10;99.90
41668;DHT22;27356;50.920;5.350;2023-02-11T16:51:18;10.10;99.90
41668;DHT22;27356;50.920;5.350;2023-02-11T16:53:44;10.00;99.90
41668;DHT22;27356;50.920;5.350;2023-02-11T16:56:14;10.00;99.90
41668;DHT22;27356;50.920;5.350;2023-02-11T16:58:42;10.00;99.90
41668;DHT22;27356;50.920;5.350;2023-02-11T17:01:07;10.00;99.90
41668;DHT22;27356;50.920;5.350;2023-02-11T17:03:33;10.00;99.90
41668;DHT22;27356;50.920;5.350;2023-02-11T17:06:07;9.80;99.90
41668;DHT22;27356;50.920;5.350;2023-02-11T17:08:33;9.80;99.90
41668;DHT22;27356;50.920;5.350;2023-02-11T17:11:00;10.00;99.90
41668;DHT22;27356;50.920;5.350;2023-02-11T17:13:26;10.00;99.90
41668;DHT22;27356;50.920;5.350;2023-02-11T17:16:00;10.00;99.90
41668;DHT22;27356;50.920;5.350;2023-02-11T17:18:26;9.90;99.90
41668;DHT22;27356;50.920;5.350;2023-02-11T17:20:52;9.80;99.90
41668;DHT22;27356;50.920;5.350;2023-02-11T17:23:18;9.80;99.90
41668;DHT22;27356;50.920;5.350;2023-02-11T17:25:43;9.60;99.90
41668;DHT22;27356;50.920;5.350;2023-02-11T17:28:09;9.60;99.90
41668;DHT22;27356;50.920;5.350;2023-02-11T17:30:38;9.60;99.90
41668;DHT22;27356;50.920;5.350;2023-02-11T17:33:05;9.70;99.90
41668;DHT22;27356;50.920;5.350;2023-02-11T17:35:30;9.80;99.90
41668;DHT22;27356;50.920;5.350;2023-02-11T17:37:57;9.90;99.90
41668;DHT22;27356;50.920;5.350;2023-02-11T17:40:23;9.80;99.90
41668;DHT22;27356;50.920;5.350;2023-02-11T17:42:49;9.70;99.90
41668;DHT22;27356;50.920;5.350;2023-02-11T17:45:15;9.80;99.90
41668;DHT22;27356;50.920;5.350;2023-02-11T17:47:40;9.80;99.90
41668;DHT22;27356;50.920;5.350;2023-02-11T17:50:07;9.90;99.90
41668;DHT22;27356;50.920;5.350;2023-02-11T17:52:33;9.90;99.90
41668;DHT22;27356;50.920;5.350;2023-02-11T17:54:58;9.90;99.90
41668;DHT22;27356;50.920;5.350;2023-02-11T17:57:24;9.90;99.90
41668;DHT22;27356;50.920;5.350;2023-02-11T17:59:50;9.90;99.90
41668;DHT22;27356;50.920;5.350;2023-02-11T18:02:16;9.90;99.90
41668;DHT22;27356;50.920;5.350;2023-02-11T18:04:41;9.80;99.90
41668;DHT22;27356;50.920;5.350;2023-02-11T18:07:07;9.70;99.90
41668;DHT22;27356;50.920;5.350;2023-02-11T18:09:38;9.70;99.90
41668;DHT22;27356;50.920;5.350;2023-02-11T18:12:04;9.70;99.90
41668;DHT22;27356;50.920;5.350;2023-02-11T18:14:30;9.70;99.90
41668;DHT22;27356;50.920;5.350;2023-02-11T18:16:56;9.80;99.90
41668;DHT22;27356;50.920;5.350;2023-02-11T18:19:21;9.80;99.90
41668;DHT22;27356;50.920;5.350;2023-02-11T18:21:50;9.80;99.90